createdAt,value
2023-06-17T00:00:45.645Z,54.60
2023-06-17T00:03:12.390Z,56.24
2023-06-17T00:05:39.522Z,55.22
2023-06-17T00:08:06.044Z,56.65
2023-06-17T00:10:32.685Z,56.47
2023-06-17T00:12:59.696Z,56.54
2023-06-17T00:15:26.507Z,55.82
2023-06-17T00:17:53.342Z,56.00
2023-06-17T00:20:20.274Z,57.01
2023-06-17T00:22:48.148Z,58.08
2023-06-17T00:25:14.749Z,58.09
2023-06-17T00:27:41.639Z,56.65
2023-06-17T00:30:08.889Z,55.30
2023-06-17T00:32:35.910Z,54.69
2023-06-17T00:35:06.936Z,55.05
2023-06-17T00:37:33.630Z,56.49
2023-06-17T00:40:00.467Z,55.84
2023-06-17T00:42:26.995Z,55.57
2023-06-17T00:44:53.730Z,55.48
2023-06-17T00:47:20.776Z,54.91
2023-06-17T00:49:48.284Z,54.33
2023-06-17T00:52:31.061Z,55.47
2023-06-17T00:55:02.537Z,55.53
2023-06-17T00:57:30.386Z,55.32
2023-06-17T00:59:56.956Z,55.25
2023-06-17T01:02:26.818Z,55.81
2023-06-17T01:04:55.336Z,55.40
2023-06-17T01:07:41.344Z,56.36
2023-06-17T01:10:18.203Z,56.21
2023-06-17T01:12:47.687Z,55.89
2023-06-17T01:15:17.559Z,55.41
2023-06-17T01:17:47.311Z,55.83
2023-06-17T01:20:14.962Z,55.49
2023-06-17T01:22:42.673Z,55.60
2023-06-17T01:25:10.679Z,55.58
2023-06-17T01:27:37.218Z,55.50
2023-06-17T01:30:04.154Z,55.35
2023-06-17T01:32:30.802Z,55.26
2023-06-17T01:35:00.508Z,55.77
2023-06-17T01:37:33.061Z,55.77
2023-06-17T01:40:01.974Z,56.22
2023-06-17T01:42:32.763Z,56.11
2023-06-17T01:45:06.272Z,56.43
2023-06-17T01:47:33.332Z,55.44
2023-06-17T01:50:01.709Z,55.53
2023-06-17T01:52:28.490Z,55.09
2023-06-17T01:54:55.426Z,55.21
2023-06-17T01:57:22.088Z,55.40
2023-06-17T01:59:48.781Z,55.60
2023-06-17T02:02:15.920Z,55.56
2023-06-17T02:04:42.732Z,55.49
2023-06-17T02:07:11.371Z,55.81
2023-06-17T02:09:38.691Z,56.53
2023-06-17T02:12:06.491Z,56.66
2023-06-17T02:14:34.359Z,56.62
2023-06-17T02:17:01.566Z,56.55
2023-06-17T02:19:30.196Z,56.56
2023-06-17T02:21:56.873Z,56.62
2023-06-17T02:24:23.731Z,56.01
2023-06-17T02:26:50.891Z,55.90
2023-06-17T02:29:18.158Z,55.41
2023-06-17T02:31:44.864Z,55.54
2023-06-17T02:34:11.501Z,55.40
2023-06-17T02:36:41.068Z,55.20
2023-06-17T02:39:08.027Z,55.65
2023-06-17T02:41:34.948Z,56.29
2023-06-17T02:44:01.504Z,55.98
2023-06-17T02:46:28.539Z,56.19
2023-06-17T02:48:56.126Z,56.57
2023-06-17T02:51:23.326Z,56.52
2023-06-17T02:53:51.226Z,56.53
2023-06-17T02:56:18.317Z,56.86
2023-06-17T02:58:46.781Z,57.09
2023-06-17T03:01:14.120Z,57.38
2023-06-17T03:03:42.950Z,57.15
2023-06-17T03:06:10.451Z,56.89
2023-06-17T03:08:41.374Z,56.56
2023-06-17T03:11:08.491Z,56.39
2023-06-17T03:13:35.021Z,56.31
2023-06-17T03:16:02.451Z,56.13
2023-06-17T03:18:29.547Z,56.37
2023-06-17T03:20:56.248Z,56.64
2023-06-17T03:23:23.032Z,56.90
2023-06-17T03:25:51.207Z,57.23
2023-06-17T03:28:18.985Z,56.97
2023-06-17T03:30:46.201Z,57.16
2023-06-17T03:33:14.630Z,56.97
2023-06-17T03:35:41.793Z,57.29
2023-06-17T03:38:10.292Z,56.76
2023-06-17T03:40:37.660Z,56.86
2023-06-17T03:43:04.130Z,57.08
2023-06-17T03:45:31.874Z,57.18
2023-06-17T03:47:59.483Z,56.79
2023-06-17T03:50:26.200Z,56.36
2023-06-17T03:52:52.836Z,56.35
2023-06-17T03:55:19.418Z,56.82
2023-06-17T03:57:46.243Z,56.99
2023-06-17T04:00:14.962Z,57.29
2023-06-17T04:02:46.153Z,57.64
2023-06-17T04:05:14.389Z,57.61
2023-06-17T04:07:41.276Z,57.66
2023-06-17T04:10:09.601Z,57.42
2023-06-17T04:12:39.935Z,57.31
2023-06-17T04:15:08.172Z,56.98
2023-06-17T04:17:37.314Z,57.18
2023-06-17T04:20:13.883Z,57.23
2023-06-17T04:22:41.913Z,57.47
2023-06-17T04:25:10.920Z,58.28
2023-06-17T04:27:37.980Z,58.65
2023-06-17T04:30:06.689Z,58.55
2023-06-17T04:32:36.426Z,58.38
2023-06-17T04:35:06.357Z,58.36
2023-06-17T04:37:33.954Z,58.38
2023-06-17T04:40:00.863Z,58.27
2023-06-17T04:42:27.842Z,58.42
2023-06-17T04:44:54.450Z,58.29
2023-06-17T04:47:21.192Z,58.19
2023-06-17T04:49:49.002Z,58.10
2023-06-17T04:52:15.561Z,57.89
2023-06-17T04:54:42.953Z,58.02
2023-06-17T04:57:09.758Z,57.97
2023-06-17T04:59:36.286Z,57.88
2023-06-17T05:02:03.289Z,57.85
2023-06-17T05:04:30.172Z,57.67
2023-06-17T05:06:56.732Z,57.44
2023-06-17T05:09:23.845Z,56.30
2023-06-17T05:11:50.869Z,57.13
2023-06-17T05:14:17.479Z,56.46
2023-06-17T05:16:44.177Z,55.64
2023-06-17T05:19:10.750Z,55.16
2023-06-17T05:21:37.276Z,55.11
2023-06-17T05:24:04.112Z,55.02
2023-06-17T05:26:30.981Z,55.42
2023-06-17T05:28:58.207Z,55.14
2023-06-17T05:31:24.802Z,54.71
2023-06-17T05:33:51.472Z,54.67
2023-06-17T05:36:18.011Z,55.17
2023-06-17T05:38:44.494Z,55.57
2023-06-17T05:41:11.103Z,55.66
2023-06-17T05:43:37.701Z,55.18
2023-06-17T05:46:04.249Z,55.04
2023-06-17T05:48:30.820Z,54.62
2023-06-17T05:50:57.443Z,54.70
2023-06-17T05:53:23.968Z,53.90
2023-06-17T05:55:50.560Z,53.70
2023-06-17T05:58:17.080Z,53.61
2023-06-17T06:00:43.592Z,52.12
2023-06-17T06:03:10.157Z,51.49
2023-06-17T06:05:37.040Z,50.43
2023-06-17T06:08:03.655Z,50.74
2023-06-17T06:10:30.199Z,50.31
2023-06-17T06:12:56.871Z,49.29
2023-06-17T06:15:24.614Z,48.48
2023-06-17T06:17:51.199Z,48.51
2023-06-17T06:20:17.855Z,48.15
2023-06-17T06:22:44.627Z,48.14
2023-06-17T06:25:11.392Z,47.86
2023-06-17T06:27:37.940Z,47.94
2023-06-17T06:30:04.770Z,47.65
2023-06-17T06:32:31.399Z,45.49
2023-06-17T06:34:58.026Z,44.22
2023-06-17T06:37:24.651Z,43.26
2023-06-17T06:39:51.245Z,41.75
2023-06-17T06:42:17.779Z,41.88
2023-06-17T06:44:44.264Z,40.94
2023-06-17T06:47:10.776Z,39.69
2023-06-17T06:49:37.276Z,39.51
2023-06-17T06:52:04.059Z,39.58
2023-06-17T06:54:30.672Z,39.85
2023-06-17T06:56:57.843Z,40.71
2023-06-17T06:59:24.311Z,41.32
2023-06-17T07:01:50.940Z,40.42
2023-06-17T07:04:17.885Z,38.81
2023-06-17T07:06:44.474Z,37.79
2023-06-17T07:09:11.070Z,36.11
2023-06-17T07:11:37.566Z,36.41
2023-06-17T07:14:04.194Z,36.94
2023-06-17T07:16:30.932Z,36.33
2023-06-17T07:18:57.575Z,35.45
2023-06-17T07:21:24.117Z,34.37
2023-06-17T07:23:51.842Z,33.55
2023-06-17T07:26:18.385Z,33.76
2023-06-17T07:28:44.993Z,32.23
2023-06-17T07:31:11.972Z,32.07
2023-06-17T07:33:38.591Z,31.17
2023-06-17T07:36:05.190Z,30.80
2023-06-17T07:38:34.069Z,30.27
2023-06-17T07:41:01.277Z,29.94
2023-06-17T07:43:27.880Z,29.26
2023-06-17T07:45:54.456Z,28.82
2023-06-17T07:48:21.257Z,29.09
2023-06-17T07:50:47.825Z,29.21
2023-06-17T07:53:14.566Z,29.18
2023-06-17T07:55:41.063Z,27.99
2023-06-17T07:58:07.651Z,28.16
2023-06-17T08:00:34.177Z,27.80
2023-06-17T08:03:01.099Z,26.71
2023-06-17T08:05:27.663Z,27.05
2023-06-17T08:07:54.179Z,27.68
2023-06-17T08:10:21.126Z,26.01
2023-06-17T08:12:48.614Z,27.15
2023-06-17T08:15:15.263Z,27.42
2023-06-17T08:17:41.922Z,27.73
2023-06-17T08:20:11.237Z,27.13
2023-06-17T08:22:37.963Z,26.54
2023-06-17T08:25:04.678Z,27.43
2023-06-17T08:27:32.185Z,26.35
2023-06-17T08:29:59.948Z,25.71
2023-06-17T08:32:26.737Z,24.51
2023-06-17T08:34:53.317Z,25.81
2023-06-17T08:37:19.799Z,24.37
2023-06-17T08:39:46.316Z,23.31
2023-06-17T08:42:12.872Z,21.78
2023-06-17T08:44:45.626Z,21.90
2023-06-17T08:47:18.670Z,20.95
2023-06-17T08:49:45.642Z,23.13
2023-06-17T08:52:14.892Z,24.47
2023-06-17T08:54:41.945Z,24.13
2023-06-17T08:57:13.972Z,20.82
2023-06-17T08:59:43.569Z,19.21
2023-06-17T09:02:13.264Z,20.49
2023-06-17T09:04:41.025Z,21.31
2023-06-17T09:07:10.761Z,20.79
2023-06-17T09:09:38.207Z,21.88
2023-06-17T09:12:06.982Z,21.82
2023-06-17T09:14:34.384Z,19.32
2023-06-17T09:17:02.094Z,19.06
2023-06-17T09:19:31.428Z,18.11
2023-06-17T09:22:06.187Z,19.47
2023-06-17T09:24:33.184Z,18.37
2023-06-17T09:26:59.911Z,16.49
2023-06-17T09:29:30.435Z,16.91
2023-06-17T09:31:57.431Z,17.22
2023-06-17T09:34:25.806Z,17.26
2023-06-17T09:37:01.512Z,16.58
2023-06-17T09:39:32.229Z,19.15
2023-06-17T09:42:09.052Z,19.57
2023-06-17T09:44:38.123Z,19.90
2023-06-17T09:47:09.162Z,18.37
2023-06-17T09:49:37.915Z,18.58
2023-06-17T09:52:06.865Z,17.85
2023-06-17T09:54:37.015Z,16.44
2023-06-17T09:57:06.852Z,17.63
2023-06-17T09:59:33.512Z,14.57
2023-06-17T10:02:00.126Z,15.63
2023-06-17T10:04:26.839Z,13.98
2023-06-17T10:06:54.301Z,15.10
2023-06-17T10:09:21.278Z,15.34
2023-06-17T10:11:52.171Z,15.59
2023-06-17T10:14:24.932Z,13.68
2023-06-17T10:16:52.150Z,14.15
2023-06-17T10:19:23.862Z,14.20
2023-06-17T10:21:53.084Z,14.96
2023-06-17T10:24:20.877Z,14.10
2023-06-17T10:26:51.381Z,13.99
2023-06-17T10:29:18.500Z,13.65
2023-06-17T10:31:45.105Z,13.43
2023-06-17T10:34:16.879Z,14.26
2023-06-17T10:36:43.371Z,13.46
2023-06-17T10:39:13.751Z,14.79
2023-06-17T10:41:43.051Z,15.68
2023-06-17T10:44:21.611Z,16.42
2023-06-17T10:46:51.916Z,15.36
2023-06-17T10:49:19.999Z,14.56
2023-06-17T10:52:00.276Z,16.77
2023-06-17T10:54:34.243Z,15.77
2023-06-17T10:57:05.809Z,15.22
2023-06-17T10:59:33.304Z,14.65
2023-06-17T11:02:05.221Z,12.94
2023-06-17T11:04:33.264Z,13.99
2023-06-17T11:07:00.900Z,12.69
2023-06-17T11:09:28.655Z,14.08
2023-06-17T11:11:56.241Z,13.26
2023-06-17T11:14:23.524Z,13.70
2023-06-17T11:16:50.761Z,14.46
2023-06-17T11:19:17.357Z,13.79
2023-06-17T11:21:43.977Z,13.95
2023-06-17T11:24:12.270Z,14.46
2023-06-17T11:26:38.858Z,13.41
2023-06-17T11:29:06.230Z,14.43
2023-06-17T11:31:41.557Z,14.86
2023-06-17T11:34:09.666Z,16.32
2023-06-17T11:36:39.383Z,12.59
2023-06-17T11:39:05.982Z,12.99
2023-06-17T11:41:34.711Z,14.11
2023-06-17T11:44:02.040Z,15.10
2023-06-17T11:46:28.676Z,15.45
2023-06-17T11:48:56.397Z,14.50
2023-06-17T11:51:24.149Z,14.96
2023-06-17T11:53:51.428Z,14.41
2023-06-17T11:56:23.262Z,14.16
2023-06-17T11:58:53.084Z,13.76
2023-06-17T12:01:24.759Z,15.00
2023-06-17T12:03:51.682Z,13.32
2023-06-17T12:06:19.769Z,13.73
2023-06-17T12:08:55.841Z,13.47
2023-06-17T12:11:26.459Z,13.27
2023-06-17T12:13:53.497Z,13.93
2023-06-17T12:16:36.666Z,15.11
2023-06-17T12:19:06.271Z,14.51
2023-06-17T12:21:34.100Z,15.75
2023-06-17T12:24:00.910Z,15.65
2023-06-17T12:26:28.090Z,14.24
2023-06-17T12:28:55.544Z,14.69
2023-06-17T12:31:23.179Z,14.04
2023-06-17T12:33:50.206Z,13.46
2023-06-17T12:36:17.887Z,14.18
2023-06-17T12:38:45.744Z,15.28
2023-06-17T12:41:12.595Z,15.04
2023-06-17T12:43:40.573Z,16.17
2023-06-17T12:46:09.665Z,18.95
2023-06-17T12:48:36.367Z,17.62
2023-06-17T12:51:08.028Z,16.15
2023-06-17T12:53:35.638Z,15.71
2023-06-17T12:56:02.417Z,15.08
2023-06-17T12:58:29.224Z,14.68
2023-06-17T13:00:56.107Z,14.60
2023-06-17T13:03:22.912Z,14.64
2023-06-17T13:05:51.168Z,14.51
2023-06-17T13:08:18.480Z,15.80
2023-06-17T13:10:45.067Z,16.82
2023-06-17T13:13:11.831Z,16.75
2023-06-17T13:15:38.901Z,15.47
2023-06-17T13:18:05.707Z,16.93
2023-06-17T13:20:32.753Z,16.44
2023-06-17T13:23:00.800Z,15.74
2023-06-17T13:25:27.608Z,15.44
2023-06-17T13:27:55.126Z,14.90
2023-06-17T13:30:21.911Z,14.76
2023-06-17T13:32:48.894Z,14.37
2023-06-17T13:35:15.499Z,14.73
2023-06-17T13:37:42.035Z,14.96
2023-06-17T13:40:09.131Z,15.19
2023-06-17T13:42:35.651Z,14.43
2023-06-17T13:45:02.381Z,15.17
2023-06-17T13:47:29.149Z,15.12
2023-06-17T13:49:55.801Z,15.66
2023-06-17T13:52:22.291Z,15.40
2023-06-17T13:54:48.895Z,15.27
2023-06-17T13:57:16.126Z,15.41
2023-06-17T13:59:43.274Z,15.65
2023-06-17T14:02:10.030Z,16.55
2023-06-17T14:04:36.859Z,17.47
2023-06-17T14:07:03.502Z,16.89
2023-06-17T14:09:30.453Z,17.40
2023-06-17T14:11:57.414Z,16.12
2023-06-17T14:14:23.967Z,15.87
2023-06-17T14:16:50.680Z,16.20
2023-06-17T14:19:17.236Z,16.46
2023-06-17T14:21:56.087Z,15.94
2023-06-17T14:24:22.819Z,15.65
2023-06-17T14:26:52.970Z,16.73
2023-06-17T14:29:19.539Z,17.02
2023-06-17T14:31:46.097Z,16.88
2023-06-17T14:34:12.635Z,18.02
2023-06-17T14:36:39.174Z,17.47
2023-06-17T14:39:05.929Z,18.85
2023-06-17T14:41:33.773Z,17.88
2023-06-17T14:44:00.645Z,18.30
2023-06-17T14:46:27.221Z,19.27
2023-06-17T14:48:54.288Z,17.62
2023-06-17T14:51:20.839Z,19.24
2023-06-17T14:53:47.358Z,18.37
2023-06-17T14:56:33.551Z,20.07
2023-06-17T14:59:01.963Z,18.16
2023-06-17T15:01:33.293Z,17.88
2023-06-17T15:04:00.341Z,19.05
2023-06-17T15:06:26.925Z,18.76
2023-06-17T15:09:02.140Z,18.59
2023-06-17T15:11:28.642Z,19.41
2023-06-17T15:13:55.165Z,18.83
2023-06-17T15:16:22.632Z,19.74
2023-06-17T15:18:49.185Z,19.88
2023-06-17T15:21:15.918Z,18.36
2023-06-17T15:23:42.921Z,18.79
2023-06-17T15:26:10.383Z,19.50
2023-06-17T15:28:37.650Z,20.17
2023-06-17T15:31:04.226Z,19.72
2023-06-17T15:33:30.886Z,20.00
2023-06-17T15:35:57.640Z,20.34
2023-06-17T15:38:24.139Z,19.80
2023-06-17T15:40:50.958Z,20.74
2023-06-17T15:43:17.434Z,20.60
2023-06-17T15:45:43.922Z,21.02
2023-06-17T15:48:10.543Z,21.34
2023-06-17T15:50:37.483Z,20.67
2023-06-17T15:53:04.066Z,20.46
2023-06-17T15:55:30.720Z,20.73
2023-06-17T15:57:57.363Z,21.07
2023-06-17T16:00:24.180Z,22.68
2023-06-17T16:02:50.926Z,21.31
2023-06-17T16:05:17.509Z,21.17
2023-06-17T16:07:44.082Z,21.20
2023-06-17T16:10:11.139Z,21.18
2023-06-17T16:12:38.644Z,22.37
2023-06-17T16:15:08.906Z,22.86
2023-06-17T16:17:36.395Z,22.41
2023-06-17T16:20:03.020Z,22.38
2023-06-17T16:22:29.581Z,23.07
2023-06-17T16:24:56.188Z,22.33
2023-06-17T16:27:22.886Z,22.33
2023-06-17T16:29:49.384Z,22.23
2023-06-17T16:32:16.093Z,22.16
2023-06-17T16:34:43.393Z,22.35
2023-06-17T16:37:10.420Z,23.13
2023-06-17T16:39:37.103Z,22.23
2023-06-17T16:42:06.589Z,22.69
2023-06-17T16:44:33.918Z,22.60
2023-06-17T16:47:00.656Z,22.70
2023-06-17T16:49:27.184Z,23.45
2023-06-17T16:51:53.805Z,24.06
2023-06-17T16:54:20.341Z,24.37
2023-06-17T16:56:47.040Z,23.93
2023-06-17T16:59:13.734Z,23.77
2023-06-17T17:01:41.350Z,23.92
2023-06-17T17:04:13.377Z,23.93
2023-06-17T17:06:40.882Z,23.67
2023-06-17T17:09:07.961Z,24.33
2023-06-17T17:11:34.511Z,23.59
2023-06-17T17:14:01.725Z,23.91
2023-06-17T17:16:28.741Z,24.50
2023-06-17T17:18:55.477Z,24.03
2023-06-17T17:21:22.048Z,24.80
2023-06-17T17:23:48.617Z,25.12
2023-06-17T17:26:15.269Z,25.95
2023-06-17T17:28:42.941Z,25.40
2023-06-17T17:31:10.116Z,24.23
2023-06-17T17:33:37.063Z,24.78
2023-06-17T17:36:03.835Z,26.02
2023-06-17T17:38:31.317Z,26.33
2023-06-17T17:40:57.829Z,25.65
2023-06-17T17:43:24.314Z,25.84
2023-06-17T17:45:50.846Z,25.29
2023-06-17T17:48:17.450Z,23.18
2023-06-17T17:50:44.072Z,23.43
2023-06-17T17:53:10.704Z,24.06
2023-06-17T17:55:37.248Z,24.48
2023-06-17T17:58:04.261Z,25.67
2023-06-17T18:00:30.786Z,26.00
2023-06-17T18:02:57.525Z,25.78
2023-06-17T18:05:24.082Z,25.91
2023-06-17T18:07:50.930Z,25.48
2023-06-17T18:10:17.507Z,25.08
2023-06-17T18:12:43.996Z,25.13
2023-06-17T18:15:11.487Z,24.49
2023-06-17T18:17:38.420Z,25.34
2023-06-17T18:20:06.122Z,27.09
2023-06-17T18:22:32.668Z,26.45
2023-06-17T18:24:59.198Z,26.67
2023-06-17T18:27:35.094Z,27.37
2023-06-17T18:30:04.429Z,27.92
2023-06-17T18:32:31.268Z,28.43
2023-06-17T18:34:57.824Z,28.56
2023-06-17T18:37:24.309Z,28.69
2023-06-17T18:39:50.872Z,28.46
2023-06-17T18:42:17.385Z,29.65
2023-06-17T18:44:44.660Z,29.56
2023-06-17T18:47:11.451Z,30.05
2023-06-17T18:49:38.697Z,30.01
2023-06-17T18:52:05.710Z,30.67
2023-06-17T18:54:32.755Z,28.70
2023-06-17T18:56:59.365Z,29.24
2023-06-17T18:59:25.842Z,30.02
2023-06-17T19:01:52.479Z,30.25
2023-06-17T19:04:19.228Z,30.17
2023-06-17T19:06:45.829Z,31.19
2023-06-17T19:09:12.400Z,31.09
2023-06-17T19:11:38.945Z,31.44
2023-06-17T19:14:05.878Z,32.00
2023-06-17T19:16:32.482Z,31.86
2023-06-17T19:18:59.311Z,32.81
2023-06-17T19:21:25.845Z,31.49
2023-06-17T19:23:53.117Z,31.23
2023-06-17T19:26:19.779Z,32.30
2023-06-17T19:28:46.380Z,31.32
2023-06-17T19:31:12.923Z,30.97
2023-06-17T19:33:39.442Z,30.95
2023-06-17T19:36:06.515Z,31.48
2023-06-17T19:38:33.704Z,31.84
2023-06-17T19:41:00.387Z,33.31
2023-06-17T19:43:27.162Z,33.86
2023-06-17T19:45:55.506Z,33.49
2023-06-17T19:48:22.163Z,32.94
2023-06-17T19:50:48.704Z,33.20
2023-06-17T19:53:15.291Z,33.29
2023-06-17T19:55:42.290Z,33.21
2023-06-17T19:58:08.812Z,33.00
2023-06-17T20:00:37.520Z,33.60
2023-06-17T20:03:04.427Z,33.45
2023-06-17T20:05:31.176Z,34.61
2023-06-17T20:07:57.746Z,34.47
2023-06-17T20:10:24.527Z,35.81
2023-06-17T20:12:51.773Z,37.04
2023-06-17T20:15:18.334Z,37.44
2023-06-17T20:17:44.875Z,35.44
2023-06-17T20:20:14.076Z,35.09
2023-06-17T20:22:41.602Z,36.23
2023-06-17T20:25:08.524Z,36.66
2023-06-17T20:27:35.139Z,37.90
2023-06-17T20:30:01.628Z,38.24
2023-06-17T20:32:28.226Z,37.82
2023-06-17T20:34:54.816Z,37.67
2023-06-17T20:37:21.474Z,38.91
2023-06-17T20:39:48.002Z,38.17
2023-06-17T20:42:14.603Z,39.80
2023-06-17T20:44:41.196Z,38.21
2023-06-17T20:47:08.990Z,40.02
2023-06-17T20:49:36.362Z,40.24
2023-06-17T20:52:03.104Z,40.03
2023-06-17T20:54:29.629Z,39.92
2023-06-17T20:56:57.242Z,40.95
2023-06-17T20:59:25.489Z,41.10
2023-06-17T21:01:52.441Z,41.51
2023-06-17T21:04:19.181Z,42.92
2023-06-17T21:06:45.886Z,42.33
2023-06-17T21:09:13.796Z,42.09
2023-06-17T21:11:40.532Z,43.28
2023-06-17T21:14:07.140Z,43.63
2023-06-17T21:16:33.762Z,41.63
2023-06-17T21:19:00.398Z,41.93
2023-06-17T21:21:29.946Z,42.98
2023-06-17T21:23:56.547Z,43.47
2023-06-17T21:26:23.310Z,42.55
2023-06-17T21:28:49.917Z,42.57
2023-06-17T21:31:16.425Z,41.90
2023-06-17T21:33:43.027Z,43.63
2023-06-17T21:36:09.581Z,42.44
2023-06-17T21:38:36.073Z,43.30
2023-06-17T21:41:02.730Z,43.69
2023-06-17T21:43:33.243Z,44.05
2023-06-17T21:46:00.991Z,44.59
2023-06-17T21:48:28.190Z,46.02
2023-06-17T21:50:54.672Z,46.49
2023-06-17T21:53:21.313Z,45.92
2023-06-17T21:55:48.134Z,46.38
2023-06-17T21:58:14.706Z,46.51
2023-06-17T22:00:41.258Z,45.84
2023-06-17T22:03:07.894Z,46.27
2023-06-17T22:05:34.958Z,45.76
2023-06-17T22:08:01.451Z,45.78
2023-06-17T22:10:27.944Z,46.73
2023-06-17T22:12:55.602Z,46.79
2023-06-17T22:15:22.201Z,47.56
2023-06-17T22:17:48.756Z,46.55
2023-06-17T22:20:15.652Z,45.78
2023-06-17T22:22:42.642Z,46.27
2023-06-17T22:25:09.451Z,47.36
2023-06-17T22:27:36.030Z,46.78
2023-06-17T22:30:03.572Z,46.81
2023-06-17T22:32:30.092Z,47.14
2023-06-17T22:34:58.643Z,47.30
2023-06-17T22:37:25.622Z,46.92
2023-06-17T22:39:52.181Z,47.33
2023-06-17T22:42:18.738Z,46.60
2023-06-17T22:44:45.256Z,46.41
2023-06-17T22:47:11.831Z,46.29
2023-06-17T22:49:38.389Z,46.37
2023-06-17T22:52:05.473Z,46.35
2023-06-17T22:54:32.887Z,48.95
2023-06-17T22:56:59.437Z,47.82
2023-06-17T22:59:25.932Z,48.09
2023-06-17T23:01:52.928Z,48.46
2023-06-17T23:04:19.452Z,47.86
2023-06-17T23:06:46.265Z,47.77
2023-06-17T23:09:12.787Z,47.91
2023-06-17T23:11:39.314Z,48.74
2023-06-17T23:14:05.835Z,49.03
2023-06-17T23:16:32.761Z,48.18
2023-06-17T23:18:59.465Z,47.52
2023-06-17T23:21:27.071Z,48.17
2023-06-17T23:23:53.773Z,48.54
2023-06-17T23:26:20.313Z,48.35
2023-06-17T23:28:46.834Z,47.76
2023-06-17T23:31:15.027Z,47.90
2023-06-17T23:33:41.662Z,47.80
2023-06-17T23:36:08.805Z,47.41
2023-06-17T23:38:40.533Z,48.98
2023-06-17T23:41:07.238Z,48.43
2023-06-17T23:43:33.754Z,48.81
2023-06-17T23:46:01.156Z,47.35
2023-06-17T23:48:28.127Z,47.83
2023-06-17T23:50:54.709Z,49.07
2023-06-17T23:53:21.281Z,48.69
2023-06-17T23:55:48.317Z,48.97
2023-06-17T23:58:15.143Z,48.09
